Select Airport:
Chesapeake Regional Airport
Last updated: 10 minutes ago
Flight conditions: VFR
Visibility: 10.0 statute miles
Sky Conditions: Clear
Wind From: 210°
Wind speed: 4 knots (4.6 mph)
Temperature: 8.1°C (46.58°F)
Dew Point: -2.6°C (27.32°F)
Altimiter setting: 29.72 in-hg
WX phone: 1-757-204-4290
WX freq: 123.675 MHz
Runway 23
   Crosswind component: 1.37 knots (1.57 mph)
   Headwind component: 3.76 knots (4.32 mph)
KCPK 212255Z AUTO 21004KT 10SM CLR 08/M03 A2972 RMK AO2 T00811026
FOR REFERENCE USE ONLY, DATA MAY NOT BE CURRENT.
ALWAYS CHECK FOR UP TO DATE INFORMATION.